createdAt,value
2017-03-28T00:00:39.045Z,0
2017-03-28T00:01:19.552Z,0
2017-03-28T00:02:00.066Z,0
2017-03-28T00:02:40.587Z,0
2017-03-28T00:03:21.075Z,0
2017-03-28T00:04:01.603Z,0
2017-03-28T00:04:42.105Z,0
2017-03-28T00:05:22.617Z,0
2017-03-28T00:06:03.138Z,0
2017-03-28T00:06:43.651Z,0
2017-03-28T00:07:24.159Z,0
2017-03-28T00:08:04.667Z,0
2017-03-28T00:08:45.167Z,0
2017-03-28T00:09:25.667Z,0
2017-03-28T00:10:06.167Z,0
2017-03-28T00:10:46.680Z,0
2017-03-28T00:11:27.200Z,0
2017-03-28T00:12:07.714Z,0
2017-03-28T00:12:48.232Z,0
2017-03-28T00:13:28.753Z,0
2017-03-28T00:14:09.267Z,0
2017-03-28T00:14:49.777Z,0
2017-03-28T00:15:30.291Z,0
2017-03-28T00:16:10.815Z,0
2017-03-28T00:16:51.319Z,0
2017-03-28T00:17:31.834Z,0
2017-03-28T00:18:12.339Z,0
2017-03-28T00:18:52.852Z,0
2017-03-28T00:19:33.354Z,0
2017-03-28T00:20:13.872Z,0
2017-03-28T00:20:54.378Z,0
2017-03-28T00:21:34.891Z,0
2017-03-28T00:22:15.403Z,0
2017-03-28T00:22:55.925Z,0
2017-03-28T00:23:36.446Z,0
2017-03-28T00:24:16.927Z,0
2017-03-28T00:24:57.446Z,0
2017-03-28T00:25:37.953Z,0
2017-03-28T00:26:18.470Z,0
2017-03-28T00:26:58.989Z,0
2017-03-28T00:27:39.485Z,0
2017-03-28T00:28:19.969Z,0
2017-03-28T00:29:00.526Z,0
2017-03-28T00:29:40.999Z,0
2017-03-28T00:30:21.542Z,0
2017-03-28T00:31:02.054Z,0
2017-03-28T00:31:42.566Z,0
2017-03-28T00:32:23.098Z,0
2017-03-28T00:33:03.632Z,0
2017-03-28T00:33:44.138Z,0
2017-03-28T00:34:24.637Z,0
2017-03-28T00:35:05.147Z,0
2017-03-28T00:35:45.641Z,0
2017-03-28T00:36:26.164Z,0
2017-03-28T00:37:06.658Z,0
2017-03-28T00:37:47.170Z,0
2017-03-28T00:38:27.664Z,0
2017-03-28T00:39:08.188Z,0
2017-03-28T00:39:48.693Z,0
2017-03-28T00:40:29.201Z,0
2017-03-28T00:41:09.744Z,0
2017-03-28T00:41:50.240Z,0
2017-03-28T00:42:30.744Z,0
2017-03-28T00:43:11.302Z,0
2017-03-28T00:43:51.807Z,0
2017-03-28T00:46:26.385Z,0
2017-03-28T00:47:06.819Z,0
2017-03-28T00:47:47.345Z,0
2017-03-28T00:48:27.841Z,0
2017-03-28T00:49:08.365Z,0
2017-03-28T00:49:48.877Z,0
2017-03-28T00:50:29.377Z,0
2017-03-28T00:51:09.899Z,0
2017-03-28T00:51:50.401Z,0
2017-03-28T00:52:30.909Z,0
2017-03-28T00:53:11.425Z,0
2017-03-28T00:53:51.916Z,0
2017-03-28T00:54:32.430Z,0
2017-03-28T00:55:12.958Z,0
2017-03-28T00:55:53.494Z,0
2017-03-28T00:56:33.990Z,0
2017-03-28T00:57:14.493Z,0
2017-03-28T00:57:55.004Z,0
2017-03-28T00:58:35.521Z,0
2017-03-28T00:59:16.024Z,0
2017-03-28T00:59:56.538Z,0
2017-03-28T01:00:37.050Z,0
2017-03-28T01:01:17.555Z,0
2017-03-28T01:01:58.079Z,0
2017-03-28T01:02:38.583Z,0
2017-03-28T01:03:19.098Z,0
2017-03-28T01:03:59.621Z,0
2017-03-28T01:04:40.114Z,0
2017-03-28T01:05:20.625Z,0
2017-03-28T01:06:01.137Z,0
2017-03-28T01:06:41.655Z,0
2017-03-28T01:07:22.173Z,0
2017-03-28T01:08:02.685Z,0
2017-03-28T01:08:43.211Z,0
2017-03-28T01:09:23.718Z,0
2017-03-28T01:10:04.250Z,0
2017-03-28T01:10:44.771Z,0
2017-03-28T01:11:25.277Z,0
2017-03-28T01:12:05.780Z,0
2017-03-28T01:12:46.290Z,0
2017-03-28T01:13:26.809Z,0
2017-03-28T01:14:07.309Z,0
2017-03-28T01:14:47.821Z,0
2017-03-28T01:15:28.318Z,0
2017-03-28T01:16:08.854Z,0
2017-03-28T01:16:49.350Z,0
2017-03-28T01:17:29.845Z,0
2017-03-28T01:18:10.353Z,0
2017-03-28T01:18:50.844Z,0
2017-03-28T01:19:31.340Z,0
2017-03-28T01:20:11.835Z,0
2017-03-28T01:20:52.357Z,0
2017-03-28T01:21:32.871Z,0
2017-03-28T01:22:13.379Z,0
2017-03-28T01:22:53.888Z,0
2017-03-28T01:23:34.415Z,0
2017-03-28T01:24:14.909Z,0
2017-03-28T01:24:55.414Z,0
2017-03-28T01:25:35.947Z,0
2017-03-28T01:26:16.450Z,0
2017-03-28T01:26:56.975Z,0
2017-03-28T01:27:37.497Z,0
2017-03-28T01:28:17.996Z,0
2017-03-28T01:28:58.520Z,0
2017-03-28T01:29:39.012Z,0
2017-03-28T01:30:19.516Z,0
2017-03-28T01:31:00.041Z,0
2017-03-28T01:31:40.545Z,0
2017-03-28T01:32:21.051Z,0
2017-03-28T01:33:01.590Z,0
2017-03-28T01:33:42.113Z,0
2017-03-28T01:34:22.641Z,0
2017-03-28T01:35:03.155Z,0
2017-03-28T01:35:43.662Z,0
2017-03-28T01:36:24.171Z,0
2017-03-28T01:37:04.684Z,0
2017-03-28T01:37:45.188Z,0
2017-03-28T01:38:25.697Z,0
2017-03-28T01:39:06.206Z,0
2017-03-28T01:39:46.711Z,0
2017-03-28T01:40:27.219Z,0
2017-03-28T01:41:07.739Z,0
2017-03-28T01:41:48.238Z,0
2017-03-28T01:42:28.751Z,0
2017-03-28T01:43:09.268Z,0
2017-03-28T01:43:49.796Z,0
2017-03-28T01:44:30.301Z,0
2017-03-28T01:45:10.824Z,0
2017-03-28T01:45:51.348Z,0
2017-03-28T01:46:31.844Z,0
2017-03-28T01:47:12.383Z,0
2017-03-28T01:47:52.874Z,0
2017-03-28T01:48:33.373Z,0
2017-03-28T01:49:13.869Z,0
2017-03-28T01:49:54.408Z,0
2017-03-28T01:50:34.868Z,0
2017-03-28T01:51:15.388Z,0
2017-03-28T01:51:55.896Z,0
2017-03-28T01:52:36.389Z,0
2017-03-28T01:53:16.924Z,0
2017-03-28T01:53:57.414Z,0
2017-03-28T01:54:37.929Z,0
2017-03-28T01:55:18.451Z,0
2017-03-28T01:55:58.962Z,0
2017-03-28T01:56:39.482Z,0
2017-03-28T01:57:19.992Z,0
2017-03-28T01:58:00.497Z,0
2017-03-28T01:58:41.054Z,0
2017-03-28T01:59:21.534Z,0
2017-03-28T02:00:02.031Z,0
2017-03-28T02:00:42.558Z,0
2017-03-28T02:01:23.065Z,0
2017-03-28T02:02:03.583Z,0
2017-03-28T02:02:44.091Z,0
2017-03-28T02:03:24.632Z,0
2017-03-28T02:04:05.126Z,0
2017-03-28T02:04:45.617Z,0
2017-03-28T02:05:26.122Z,0
2017-03-28T02:06:06.623Z,0
2017-03-28T02:06:47.134Z,0
2017-03-28T02:07:27.644Z,0
2017-03-28T02:08:08.159Z,0
2017-03-28T02:08:48.663Z,0
2017-03-28T02:09:29.167Z,0
2017-03-28T02:10:09.705Z,0
2017-03-28T02:10:50.209Z,0
2017-03-28T02:11:30.740Z,0
2017-03-28T02:12:11.264Z,0
2017-03-28T02:12:51.754Z,0
2017-03-28T02:13:32.265Z,0
2017-03-28T02:14:12.785Z,0
2017-03-28T02:14:53.290Z,0
2017-03-28T02:15:33.809Z,0
2017-03-28T02:16:14.320Z,0
2017-03-28T02:16:54.837Z,0
2017-03-28T02:17:35.329Z,0
2017-03-28T02:18:15.840Z,0
2017-03-28T02:18:56.366Z,0
2017-03-28T02:19:36.863Z,0
2017-03-28T02:20:17.401Z,0
2017-03-28T02:20:57.923Z,0
2017-03-28T02:21:38.437Z,0
2017-03-28T02:22:18.937Z,0
2017-03-28T02:22:59.452Z,0
2017-03-28T02:23:39.949Z,0
2017-03-28T02:24:20.447Z,0
2017-03-28T02:25:00.960Z,0
2017-03-28T02:25:41.468Z,0
2017-03-28T02:26:21.981Z,0
2017-03-28T02:27:02.502Z,0
2017-03-28T02:27:43.029Z,0
2017-03-28T02:28:23.519Z,0
2017-03-28T02:29:04.028Z,0
2017-03-28T02:29:44.529Z,0
2017-03-28T02:30:25.048Z,0
2017-03-28T02:31:05.573Z,0
2017-03-28T02:31:46.077Z,0
2017-03-28T02:32:26.598Z,0
2017-03-28T02:33:07.111Z,0
2017-03-28T02:33:47.633Z,0
2017-03-28T02:34:28.132Z,0
2017-03-28T02:35:08.635Z,0
2017-03-28T02:35:49.135Z,0
2017-03-28T02:36:29.651Z,0
2017-03-28T02:37:10.177Z,0
2017-03-28T02:37:50.698Z,0
2017-03-28T02:38:31.222Z,0
2017-03-28T02:39:11.739Z,0
2017-03-28T02:39:52.241Z,0
2017-03-28T02:40:32.754Z,0
2017-03-28T02:41:13.272Z,0
2017-03-28T02:41:53.785Z,0
2017-03-28T02:42:34.290Z,0
2017-03-28T02:43:14.789Z,0
2017-03-28T02:43:55.320Z,0
2017-03-28T02:44:35.873Z,0
2017-03-28T02:45:16.374Z,0
2017-03-28T02:45:56.883Z,0
2017-03-28T02:46:37.390Z,0
2017-03-28T02:47:17.930Z,0
2017-03-28T02:47:58.398Z,0
2017-03-28T02:48:38.888Z,0
2017-03-28T02:49:19.398Z,0
2017-03-28T02:49:59.906Z,0
2017-03-28T02:50:40.428Z,0
2017-03-28T02:51:20.931Z,0
2017-03-28T02:52:01.449Z,0
2017-03-28T02:52:41.989Z,0
2017-03-28T02:53:22.501Z,0
2017-03-28T02:54:03.027Z,0
2017-03-28T02:54:43.532Z,0
2017-03-28T02:55:24.029Z,0
2017-03-28T02:56:04.552Z,0
2017-03-28T02:56:45.064Z,0
2017-03-28T02:57:25.576Z,0
2017-03-28T02:58:06.094Z,0
2017-03-28T02:58:46.603Z,0
2017-03-28T02:59:27.117Z,0
2017-03-28T03:00:07.615Z,0
2017-03-28T03:00:48.128Z,0
2017-03-28T03:01:28.627Z,0
2017-03-28T03:02:09.142Z,0
2017-03-28T03:02:49.662Z,0
2017-03-28T03:03:30.183Z,0
2017-03-28T03:04:10.685Z,0
2017-03-28T03:04:51.206Z,0
2017-03-28T03:05:31.721Z,0
2017-03-28T03:06:12.213Z,0
2017-03-28T03:06:52.734Z,0
2017-03-28T03:07:33.223Z,0
2017-03-28T03:08:13.749Z,0
2017-03-28T03:08:54.248Z,0
2017-03-28T03:09:34.771Z,0
2017-03-28T03:10:15.277Z,0
2017-03-28T03:10:55.783Z,0
2017-03-28T03:11:36.295Z,0
2017-03-28T03:12:16.840Z,0
2017-03-28T03:12:57.303Z,0
2017-03-28T03:13:37.801Z,0
2017-03-28T03:14:18.317Z,0
2017-03-28T03:14:58.829Z,0
2017-03-28T03:15:39.326Z,0
2017-03-28T03:16:19.837Z,0
2017-03-28T03:17:00.357Z,0
2017-03-28T03:17:40.857Z,0
2017-03-28T03:18:21.376Z,0
2017-03-28T03:19:01.911Z,0
2017-03-28T03:19:42.527Z,0
2017-03-28T03:20:23.016Z,0
2017-03-28T03:21:03.563Z,0
2017-03-28T03:21:44.109Z,0
2017-03-28T03:22:24.629Z,0
2017-03-28T03:23:05.133Z,0
2017-03-28T03:23:45.646Z,0
2017-03-28T03:24:26.176Z,0
2017-03-28T03:25:06.629Z,0
2017-03-28T03:25:47.166Z,0
2017-03-28T03:26:27.712Z,0
2017-03-28T03:27:08.209Z,0
2017-03-28T03:27:48.727Z,0
2017-03-28T03:28:29.247Z,0
2017-03-28T03:29:09.765Z,0
2017-03-28T03:29:50.270Z,0
2017-03-28T03:30:30.779Z,0
2017-03-28T03:31:11.314Z,0
2017-03-28T03:31:51.840Z,0
2017-03-28T03:32:32.374Z,0
2017-03-28T03:33:12.869Z,0
2017-03-28T03:33:53.388Z,0
2017-03-28T03:34:33.910Z,0
2017-03-28T03:35:14.436Z,0
2017-03-28T03:35:54.936Z,0
2017-03-28T03:36:35.483Z,0
2017-03-28T03:37:15.972Z,0
2017-03-28T03:37:56.504Z,0
2017-03-28T03:38:37.036Z,0
2017-03-28T03:39:17.584Z,0
2017-03-28T03:39:58.127Z,0
2017-03-28T03:40:38.655Z,0
2017-03-28T03:41:19.150Z,0
2017-03-28T03:41:59.682Z,0
2017-03-28T03:42:40.228Z,0
2017-03-28T03:43:20.757Z,0
2017-03-28T03:44:01.328Z,0
2017-03-28T03:44:41.842Z,0
2017-03-28T03:45:22.415Z,0
2017-03-28T03:46:02.922Z,0
2017-03-28T03:46:43.836Z,0
2017-03-28T03:47:24.099Z,0
2017-03-28T03:48:04.637Z,0
2017-03-28T03:48:45.246Z,0
2017-03-28T03:49:25.727Z,0
2017-03-28T03:50:06.213Z,0
2017-03-28T03:50:46.725Z,0
2017-03-28T03:51:27.275Z,0
2017-03-28T03:52:07.812Z,0
2017-03-28T03:52:48.372Z,0
2017-03-28T03:53:29.406Z,0
2017-03-28T03:54:10.465Z,0
2017-03-28T03:54:50.953Z,0
2017-03-28T03:55:31.471Z,0
2017-03-28T03:56:11.986Z,0
2017-03-28T03:56:52.502Z,0
2017-03-28T03:57:32.995Z,0
2017-03-28T03:58:13.517Z,0
2017-03-28T03:58:54.006Z,0
2017-03-28T03:59:34.553Z,0
2017-03-28T04:00:15.042Z,0
2017-03-28T04:00:55.554Z,0
2017-03-28T04:01:36.089Z,0
2017-03-28T04:02:16.598Z,0
2017-03-28T04:02:57.169Z,0
2017-03-28T04:03:37.692Z,0
2017-03-28T04:04:18.264Z,0
2017-03-28T04:04:58.779Z,0
2017-03-28T04:05:39.441Z,0
2017-03-28T04:06:20.000Z,0
2017-03-28T04:07:00.517Z,0
2017-03-28T04:07:41.014Z,0
2017-03-28T04:08:21.510Z,0
2017-03-28T04:09:02.006Z,0
2017-03-28T04:09:42.515Z,0
2017-03-28T04:10:23.017Z,0
2017-03-28T04:11:03.528Z,0
2017-03-28T04:11:44.035Z,0
2017-03-28T04:12:24.547Z,0
2017-03-28T04:13:05.042Z,0
2017-03-28T04:13:45.583Z,0
2017-03-28T04:14:26.146Z,0
2017-03-28T04:15:06.643Z,0
2017-03-28T04:15:47.188Z,0
2017-03-28T04:16:27.703Z,0
2017-03-28T04:17:08.238Z,0
2017-03-28T04:17:48.805Z,0
2017-03-28T04:18:29.327Z,0
2017-03-28T04:19:09.915Z,0
2017-03-28T04:19:50.408Z,0
2017-03-28T04:20:30.971Z,0
2017-03-28T04:21:11.475Z,0
2017-03-28T04:21:51.983Z,0
2017-03-28T04:22:32.521Z,0
2017-03-28T04:23:12.995Z,0
2017-03-28T04:23:53.537Z,0
2017-03-28T04:24:34.042Z,0
2017-03-28T04:25:14.593Z,0
2017-03-28T04:25:55.097Z,0
2017-03-28T04:26:35.609Z,0
2017-03-28T04:27:16.142Z,0
2017-03-28T04:27:56.738Z,0
2017-03-28T04:28:37.258Z,0
2017-03-28T04:29:17.732Z,0
2017-03-28T04:29:58.299Z,0
2017-03-28T04:30:38.896Z,0
2017-03-28T04:31:19.444Z,0
2017-03-28T04:31:59.971Z,0
2017-03-28T04:32:40.543Z,0
2017-03-28T04:33:21.173Z,0
2017-03-28T04:34:01.818Z,0
2017-03-28T04:34:42.389Z,0
2017-03-28T04:35:22.890Z,0
2017-03-28T04:36:03.410Z,0
2017-03-28T04:36:43.922Z,0
2017-03-28T04:37:24.433Z,0
2017-03-28T04:38:04.950Z,0
2017-03-28T04:38:45.534Z,0
2017-03-28T04:39:26.160Z,0
2017-03-28T04:40:06.616Z,0
2017-03-28T04:40:47.104Z,0
2017-03-28T04:41:27.673Z,0
2017-03-28T04:42:08.138Z,0
2017-03-28T04:42:48.715Z,0
2017-03-28T04:43:29.241Z,0
2017-03-28T04:44:09.735Z,0
2017-03-28T04:44:50.228Z,0
2017-03-28T04:45:30.850Z,0
2017-03-28T04:46:11.329Z,0
2017-03-28T04:46:51.849Z,0
2017-03-28T04:47:32.344Z,0
2017-03-28T04:48:12.873Z,0
2017-03-28T04:48:53.445Z,0
2017-03-28T04:49:33.955Z,0
2017-03-28T04:50:14.547Z,0
2017-03-28T04:50:55.168Z,0
2017-03-28T04:51:35.654Z,0
2017-03-28T04:52:16.170Z,0
2017-03-28T04:52:56.697Z,0
2017-03-28T04:53:37.229Z,0
2017-03-28T04:54:17.738Z,0
2017-03-28T04:54:58.257Z,0
2017-03-28T04:55:38.764Z,0
2017-03-28T04:56:19.292Z,0
2017-03-28T04:56:59.805Z,0
2017-03-28T04:57:40.364Z,0
2017-03-28T04:58:20.894Z,0
2017-03-28T04:59:01.421Z,0
2017-03-28T04:59:41.904Z,0
2017-03-28T05:00:22.418Z,0
2017-03-28T05:01:02.944Z,0
2017-03-28T05:01:43.448Z,0
2017-03-28T05:02:23.978Z,0
2017-03-28T05:03:04.540Z,0
2017-03-28T05:03:45.030Z,0
2017-03-28T05:04:25.566Z,0
2017-03-28T05:05:06.088Z,0
2017-03-28T05:05:46.584Z,0
2017-03-28T05:06:27.096Z,0
2017-03-28T05:07:07.656Z,0
2017-03-28T05:07:48.198Z,0
2017-03-28T05:08:28.721Z,0
2017-03-28T05:09:09.324Z,0
2017-03-28T05:09:49.764Z,0
2017-03-28T05:10:30.330Z,0
2017-03-28T05:11:10.881Z,0
2017-03-28T05:11:51.389Z,0
2017-03-28T05:12:31.935Z,5
2017-03-28T05:13:12.428Z,5
2017-03-28T05:13:53.029Z,5
2017-03-28T05:14:33.497Z,5
2017-03-28T05:15:14.126Z,5
2017-03-28T05:15:54.616Z,5
2017-03-28T05:16:35.070Z,5
2017-03-28T05:17:15.606Z,5
2017-03-28T05:17:56.160Z,5
2017-03-28T05:18:36.641Z,5
2017-03-28T05:19:17.147Z,5
2017-03-28T05:19:57.731Z,10
2017-03-28T05:20:38.306Z,10
2017-03-28T05:21:18.834Z,10
2017-03-28T05:21:59.434Z,10
2017-03-28T05:22:39.952Z,10
2017-03-28T05:23:20.504Z,10
2017-03-28T05:24:01.016Z,10
2017-03-28T05:24:41.522Z,10
2017-03-28T05:25:22.033Z,10
2017-03-28T05:26:02.526Z,15
2017-03-28T05:26:43.038Z,15
2017-03-28T05:27:23.800Z,15
2017-03-28T05:28:04.346Z,15
2017-03-28T05:28:44.850Z,15
2017-03-28T05:29:25.399Z,15
2017-03-28T05:30:05.860Z,15
2017-03-28T05:30:46.387Z,20
2017-03-28T05:31:26.879Z,20
2017-03-28T05:32:07.401Z,20
2017-03-28T05:32:47.906Z,20
2017-03-28T05:33:28.405Z,20
2017-03-28T05:34:08.917Z,20
2017-03-28T05:34:49.447Z,20
2017-03-28T05:35:29.951Z,25
2017-03-28T05:36:10.444Z,25
2017-03-28T05:36:50.949Z,25
2017-03-28T05:37:31.477Z,25
2017-03-28T05:38:12.017Z,25
2017-03-28T05:38:52.502Z,25
2017-03-28T05:39:33.040Z,30
2017-03-28T05:40:13.563Z,30
2017-03-28T05:40:54.108Z,30
2017-03-28T05:41:34.585Z,30
2017-03-28T05:42:15.134Z,30
2017-03-28T05:42:55.678Z,30
2017-03-28T05:43:36.195Z,35
2017-03-28T05:44:16.708Z,35
2017-03-28T05:44:57.192Z,35
2017-03-28T05:45:37.710Z,35
2017-03-28T05:46:18.229Z,35
2017-03-28T05:46:58.715Z,35
2017-03-28T05:47:39.239Z,40
2017-03-28T05:48:19.720Z,40
2017-03-28T05:49:00.239Z,40
2017-03-28T05:49:40.780Z,40
2017-03-28T05:50:21.640Z,40
2017-03-28T05:51:02.192Z,40
2017-03-28T05:51:42.713Z,45
2017-03-28T05:52:23.223Z,45
2017-03-28T05:53:03.746Z,45
2017-03-28T05:53:44.248Z,45
2017-03-28T05:54:24.781Z,45
2017-03-28T05:55:05.302Z,45
2017-03-28T05:55:45.802Z,50
2017-03-28T05:56:26.319Z,50
2017-03-28T05:57:06.839Z,50
2017-03-28T05:57:47.365Z,50
2017-03-28T05:58:27.860Z,50
2017-03-28T05:59:08.356Z,50
2017-03-28T05:59:48.870Z,55
2017-03-28T06:00:29.373Z,55
2017-03-28T06:01:09.908Z,55
2017-03-28T06:01:50.429Z,55
2017-03-28T06:02:30.941Z,55
2017-03-28T06:03:11.451Z,55
2017-03-28T06:03:51.953Z,60
2017-03-28T06:04:32.471Z,60
2017-03-28T06:05:12.973Z,60
2017-03-28T06:05:53.491Z,60
2017-03-28T06:06:34.004Z,60
2017-03-28T06:07:14.519Z,60
2017-03-28T06:07:55.023Z,65
2017-03-28T06:08:35.515Z,65
2017-03-28T06:09:16.024Z,65
2017-03-28T06:09:56.518Z,65
2017-03-28T06:10:37.063Z,65
2017-03-28T06:11:17.562Z,65
2017-03-28T06:11:58.068Z,70
2017-03-28T06:12:38.611Z,70
2017-03-28T06:13:19.205Z,70
2017-03-28T06:13:59.680Z,70
2017-03-28T06:14:40.196Z,70
2017-03-28T06:15:20.692Z,75
2017-03-28T06:16:01.192Z,75
2017-03-28T06:16:41.712Z,75
2017-03-28T06:17:22.504Z,75
2017-03-28T06:18:02.984Z,75
2017-03-28T06:18:43.497Z,75
2017-03-28T06:19:24.003Z,80
2017-03-28T06:20:04.772Z,80
2017-03-28T06:20:45.633Z,80
2017-03-28T06:21:26.127Z,80
2017-03-28T06:22:06.658Z,80
2017-03-28T06:22:47.179Z,80
2017-03-28T06:23:27.716Z,85
2017-03-28T06:24:08.235Z,85
2017-03-28T06:24:48.760Z,85
2017-03-28T06:25:29.271Z,85
2017-03-28T06:26:09.866Z,85
2017-03-28T06:26:50.390Z,90
2017-03-28T06:27:30.921Z,90
2017-03-28T06:28:11.416Z,90
2017-03-28T06:28:51.933Z,90
2017-03-28T06:29:32.463Z,90
2017-03-28T06:30:12.956Z,90
2017-03-28T06:30:53.563Z,95
2017-03-28T06:31:34.090Z,95
2017-03-28T06:32:14.571Z,95
2017-03-28T06:32:55.083Z,95
2017-03-28T06:33:35.595Z,95
2017-03-28T06:34:16.106Z,100
2017-03-28T06:34:56.625Z,100
2017-03-28T06:35:37.136Z,100
2017-03-28T06:36:17.645Z,100
2017-03-28T06:36:58.199Z,100
2017-03-28T06:37:38.669Z,100
2017-03-28T06:38:19.170Z,105
2017-03-28T06:38:59.692Z,105
2017-03-28T06:39:40.193Z,105
2017-03-28T06:40:20.697Z,105
2017-03-28T06:41:01.200Z,105
2017-03-28T06:41:41.781Z,105
2017-03-28T06:42:22.272Z,105
2017-03-28T06:43:02.785Z,110
2017-03-28T06:43:43.305Z,110
2017-03-28T06:44:23.807Z,110
2017-03-28T06:45:04.331Z,110
2017-03-28T06:45:44.825Z,110
2017-03-28T06:46:25.350Z,110
2017-03-28T06:47:05.850Z,110
2017-03-28T06:47:46.346Z,115
2017-03-28T06:48:26.846Z,115
2017-03-28T06:49:07.356Z,115
2017-03-28T06:49:47.865Z,115
2017-03-28T06:50:28.371Z,115
2017-03-28T06:51:08.885Z,115
2017-03-28T06:51:49.392Z,120
2017-03-28T06:52:29.933Z,120
2017-03-28T06:53:10.412Z,120
2017-03-28T06:53:50.936Z,120
2017-03-28T06:54:31.441Z,120
2017-03-28T06:55:11.953Z,120
2017-03-28T06:55:52.446Z,120
2017-03-28T06:56:32.936Z,125
2017-03-28T06:57:13.424Z,125
2017-03-28T06:57:53.941Z,125
2017-03-28T06:58:34.447Z,125
2017-03-28T06:59:14.957Z,125
2017-03-28T06:59:55.517Z,125
2017-03-28T07:00:36.024Z,125
2017-03-28T07:01:16.513Z,130
2017-03-28T07:01:57.131Z,130
2017-03-28T07:02:37.636Z,130
2017-03-28T07:03:18.159Z,130
2017-03-28T07:03:58.745Z,130
2017-03-28T07:04:39.261Z,130
2017-03-28T07:05:19.769Z,130
2017-03-28T07:06:00.273Z,135
2017-03-28T07:06:40.771Z,135
2017-03-28T07:07:21.283Z,135
2017-03-28T07:08:01.786Z,135
2017-03-28T07:08:42.304Z,135
2017-03-28T07:09:22.819Z,135
2017-03-28T07:10:03.326Z,140
2017-03-28T07:10:43.834Z,140
2017-03-28T07:11:24.352Z,140
2017-03-28T07:12:04.859Z,140
2017-03-28T07:12:45.389Z,140
2017-03-28T07:13:25.880Z,140
2017-03-28T07:14:06.396Z,145
2017-03-28T07:14:46.915Z,145
2017-03-28T07:15:27.414Z,145
2017-03-28T07:16:07.930Z,145
2017-03-28T07:16:48.468Z,145
2017-03-28T07:17:28.966Z,145
2017-03-28T07:18:09.467Z,145
2017-03-28T07:18:49.989Z,145
2017-03-28T07:19:30.525Z,150
2017-03-28T07:20:11.036Z,150
2017-03-28T07:20:51.554Z,150
2017-03-28T07:21:32.053Z,150
2017-03-28T07:22:12.568Z,150
2017-03-28T07:22:53.064Z,150
2017-03-28T07:23:33.600Z,155
2017-03-28T07:24:14.098Z,155
2017-03-28T07:24:54.612Z,155
2017-03-28T07:25:35.117Z,155
2017-03-28T07:26:15.629Z,155
2017-03-28T07:26:56.134Z,155
2017-03-28T07:27:36.629Z,155
2017-03-28T07:28:17.156Z,155
2017-03-28T07:28:57.646Z,155
2017-03-28T07:29:38.191Z,160
2017-03-28T07:30:18.667Z,160
2017-03-28T07:30:59.221Z,160
2017-03-28T07:31:39.732Z,160
2017-03-28T07:32:20.248Z,160
2017-03-28T07:33:00.770Z,160
2017-03-28T07:33:41.278Z,160
2017-03-28T07:34:21.774Z,160
2017-03-28T07:35:02.281Z,165
2017-03-28T07:35:42.794Z,165
2017-03-28T07:36:23.298Z,165
2017-03-28T07:37:03.820Z,165
2017-03-28T07:37:44.335Z,165
2017-03-28T07:38:24.864Z,165
2017-03-28T07:39:05.381Z,170
2017-03-28T07:39:45.903Z,170
2017-03-28T07:40:26.421Z,170
2017-03-28T07:41:06.948Z,170
2017-03-28T07:41:47.474Z,170
2017-03-28T07:42:27.979Z,170
2017-03-28T07:43:08.490Z,170
2017-03-28T07:43:49.000Z,170
2017-03-28T07:44:29.524Z,175
2017-03-28T07:45:10.037Z,175
2017-03-28T07:45:50.592Z,175
2017-03-28T07:46:31.112Z,175
2017-03-28T07:47:11.642Z,175
2017-03-28T07:47:52.112Z,175
2017-03-28T07:48:32.658Z,175
2017-03-28T07:49:13.142Z,175
2017-03-28T07:49:53.669Z,175
2017-03-28T07:50:34.156Z,180
2017-03-28T07:51:14.668Z,180
2017-03-28T07:51:55.196Z,180
2017-03-28T07:52:35.745Z,180
2017-03-28T07:53:16.222Z,180
2017-03-28T07:53:56.742Z,180
2017-03-28T07:54:37.256Z,180
2017-03-28T07:55:17.758Z,185
2017-03-28T07:55:58.286Z,185
2017-03-28T07:56:38.814Z,185
2017-03-28T07:57:19.322Z,185
2017-03-28T07:57:59.839Z,185
2017-03-28T07:58:40.374Z,185
2017-03-28T07:59:20.889Z,190
2017-03-28T08:00:01.398Z,190
2017-03-28T08:00:41.903Z,190
2017-03-28T08:01:22.422Z,190
2017-03-28T08:02:02.941Z,195
2017-03-28T08:02:43.490Z,195
2017-03-28T08:03:23.975Z,195
2017-03-28T08:04:04.491Z,195
2017-03-28T08:04:45.024Z,195
2017-03-28T08:05:25.521Z,200
2017-03-28T08:06:06.041Z,200
2017-03-28T08:06:46.545Z,200
2017-03-28T08:07:27.222Z,200
2017-03-28T08:08:07.741Z,200
2017-03-28T08:08:48.259Z,200
2017-03-28T08:09:28.794Z,200
2017-03-28T08:10:09.336Z,200
2017-03-28T08:10:49.891Z,205
2017-03-28T08:11:30.382Z,205
2017-03-28T08:12:10.894Z,210
2017-03-28T08:12:51.403Z,315
2017-03-28T08:13:31.930Z,540
2017-03-28T08:14:12.436Z,605
2017-03-28T08:14:52.941Z,405
2017-03-28T08:15:33.464Z,235
2017-03-28T08:16:13.975Z,210
2017-03-28T08:16:54.494Z,210
2017-03-28T08:17:34.995Z,210
2017-03-28T08:18:15.551Z,210
2017-03-28T08:18:56.058Z,210
2017-03-28T08:19:36.546Z,210
2017-03-28T08:20:17.060Z,215
2017-03-28T08:20:57.582Z,215
2017-03-28T08:21:38.090Z,215
2017-03-28T08:22:18.639Z,220
2017-03-28T08:24:48.145Z,310
2017-03-28T08:25:28.656Z,325
2017-03-28T08:26:09.166Z,345
2017-03-28T08:26:49.682Z,285
2017-03-28T08:27:30.217Z,245
2017-03-28T08:28:10.705Z,235
2017-03-28T08:28:51.241Z,230
2017-03-28T08:29:31.750Z,230
2017-03-28T08:30:12.251Z,230
2017-03-28T08:30:52.766Z,230
2017-03-28T08:31:33.294Z,235
2017-03-28T08:32:13.829Z,235
2017-03-28T08:32:54.310Z,235
2017-03-28T08:33:34.814Z,240
2017-03-28T08:34:15.315Z,240
2017-03-28T08:34:55.832Z,240
2017-03-28T08:35:36.357Z,240
2017-03-28T08:36:16.880Z,245
2017-03-28T08:36:57.371Z,245
2017-03-28T08:37:37.882Z,270
2017-03-28T08:38:18.413Z,435
2017-03-28T08:38:58.934Z,495
2017-03-28T08:39:39.470Z,410
2017-03-28T08:40:19.984Z,290
2017-03-28T08:41:00.495Z,280
2017-03-28T08:41:41.046Z,295
2017-03-28T08:42:21.557Z,295
2017-03-28T08:43:02.097Z,285
2017-03-28T08:43:42.597Z,270
2017-03-28T08:44:23.109Z,265
2017-03-28T08:45:03.646Z,265
2017-03-28T08:45:44.153Z,260
2017-03-28T08:46:24.669Z,260
2017-03-28T08:47:05.214Z,265
2017-03-28T08:47:45.724Z,265
2017-03-28T08:48:26.200Z,265
2017-03-28T08:49:06.739Z,270
2017-03-28T08:49:47.253Z,270
2017-03-28T08:50:27.772Z,280
2017-03-28T08:51:08.293Z,335
2017-03-28T08:51:48.803Z,730
2017-03-28T08:52:29.311Z,1315
2017-03-28T08:53:09.837Z,1865
2017-03-28T08:53:50.378Z,2125
2017-03-28T08:54:30.900Z,2220
2017-03-28T08:55:11.421Z,1860
2017-03-28T08:55:51.952Z,1210
2017-03-28T08:56:32.473Z,545
2017-03-28T08:57:12.996Z,310
2017-03-28T08:57:53.536Z,790
2017-03-28T08:58:34.037Z,1680
2017-03-28T08:59:14.564Z,2140
2017-03-28T08:59:55.061Z,1910
2017-03-28T09:00:35.572Z,1870
2017-03-28T09:01:16.099Z,1840
2017-03-28T09:01:56.622Z,1800
2017-03-28T09:02:37.139Z,1915
2017-03-28T09:03:17.658Z,2105
2017-03-28T09:03:58.178Z,2230
2017-03-28T09:04:38.681Z,2300
2017-03-28T09:05:19.206Z,2330
2017-03-28T09:05:59.733Z,2435
2017-03-28T09:06:40.250Z,2485
2017-03-28T09:07:20.771Z,2535
2017-03-28T09:08:01.287Z,2535
2017-03-28T09:08:41.826Z,2545
2017-03-28T09:09:22.339Z,2570
2017-03-28T09:10:02.833Z,2590
2017-03-28T09:10:43.381Z,2575
2017-03-28T09:11:23.887Z,2505
2017-03-28T09:12:04.396Z,2435
2017-03-28T09:12:44.923Z,2400
2017-03-28T09:13:25.447Z,2365
2017-03-28T09:14:05.969Z,2315
2017-03-28T09:14:46.476Z,2315
2017-03-28T09:15:27.009Z,2405
2017-03-28T09:16:07.557Z,2505
2017-03-28T09:16:48.045Z,2555
2017-03-28T09:17:28.575Z,2575
2017-03-28T09:18:09.097Z,2595
2017-03-28T09:18:49.621Z,2615
2017-03-28T09:19:30.153Z,2665
2017-03-28T09:20:10.664Z,2685
2017-03-28T09:20:51.201Z,2730
2017-03-28T09:21:31.709Z,2755
2017-03-28T09:22:12.232Z,2745
2017-03-28T09:22:52.759Z,2725
2017-03-28T09:23:33.298Z,2705
2017-03-28T09:24:13.804Z,2695
2017-03-28T09:24:54.326Z,2755
2017-03-28T09:25:34.865Z,2710
2017-03-28T09:26:15.398Z,2820
2017-03-28T09:26:55.942Z,2870
2017-03-28T09:27:36.433Z,2870
2017-03-28T09:28:16.975Z,2740
2017-03-28T09:28:57.493Z,2840
2017-03-28T09:29:38.006Z,2805
2017-03-28T09:30:18.536Z,2800
2017-03-28T09:30:59.053Z,2820
2017-03-28T09:31:39.567Z,2830
2017-03-28T09:32:20.129Z,2885
2017-03-28T09:33:00.669Z,2910
2017-03-28T09:33:41.178Z,2920
2017-03-28T09:34:21.739Z,2935
2017-03-28T09:35:02.292Z,2845
2017-03-28T09:35:42.795Z,2860
2017-03-28T09:36:23.313Z,2795
2017-03-28T09:37:03.851Z,2785
2017-03-28T09:37:44.450Z,2825
2017-03-28T09:38:24.958Z,2845
2017-03-28T09:39:05.490Z,2910
2017-03-28T09:39:46.025Z,2965
2017-03-28T09:40:26.530Z,2975
2017-03-28T09:41:07.079Z,3030
2017-03-28T09:41:47.597Z,3035
2017-03-28T09:42:28.128Z,3035
2017-03-28T09:43:08.649Z,3005
2017-03-28T09:43:49.181Z,2970
2017-03-28T09:44:29.704Z,3020